KSUZ

Saline County Regional Airport

Benton, Arkansas, USA
METAR KSUZ 170135Z AUTO 00000KT 9SM 07/06 A3026 RMK A01
Observed Flight Rules
Dec-17 @ 01:35 UTC (9 minutes ago)
Visibility
9 miles
Temperatures Readings
Current 7°C / 45°F
Dewpoint 6°C / 43°F
Humidity 93%
Altimeter 30.26" Hg
Pressure 1025 hPa
METAR KSUZ 170135Z AUTO 00000KT 9SM 07/06 A3026 RMK A01
Observed Flight Rules
Dec-17 @ 01:35 UTC
(9 minutes ago)
Temperature Dewpoint
7°C / 45°F 6°C / 43°F
Humidity Altimeter Pressure
93% 30.26" Hg 1025 hPa